Latest Weather Observations for Wadeye (Port Keats)

IDD60801

Issued at 5:31 pm CST Sunday 11 December 2016 (issued every 30 minutes, with the page automatically refreshed every 10 minutes)

About weather observations | Map of weather stations | Latest weather observations for NT | Other Formats
Station Details ID: 014948 Name: PORT KEATS AIRPORT Lat: -14.25 Lon: 129.53 Height: 28.0 m
Data from the previous 72 hours. | See also: Recent months at Wadeye (Port Keats)
Date/Time
CST
Temp
°C
App
Temp
°C
Dew
Point
°C
Rel
Hum
%
Delta-T
°C
Wind Press
QNH
hPa
Press
MSL
hPa
Rain since
9am
mm
Dir  Spd
km/h
Gust
km/h
Spd
kts
Gust
kts
11/05:30pm 26.0 31.1 22.7 82 2.2 CALM 0 0 0 0 1006.2 1005.9 -
11/05:00pm 25.2 27.8 22.7 86 1.7 N 13 20 7 11 1006.3 1006.0 4.8
11/04:30pm 24.6 28.3 23.2 92 1.0 SW 9 17 5 9 1006.6 1006.4 4.8
11/04:00pm 23.8 22.6 20.9 84 1.9 SE 28 43 15 23 1007.9 1007.7 2.6
11/03:45pm 27.3 26.7 21.3 69 4.0 E 26 46 14 25 1007.9 1007.7 0.2
11/03:30pm 28.9 30.1 21.4 64 5.0 NNE 17 26 9 14 1007.3 1007.1 0.2
11/03:00pm 28.4 29.1 19.6 59 5.7 NE 15 22 8 12 1006.7 1006.5 0.2
11/02:30pm 32.4 35.8 23.4 59 6.2 WSW 11 22 6 12 1006.7 1006.5 0.2
11/02:00pm 32.5 35.9 24.0 61 5.9 WSW 13 22 7 12 1007.1 1006.9 0.2
11/01:30pm 31.6 36.0 24.5 66 5.0 WSW 9 17 5 9 1007.5 1007.3 0.2
11/01:00pm 30.9 34.2 23.8 66 4.9 WSW 13 17 7 9 1008.2 1008.0 0.2
11/12:30pm 31.2 34.8 24.3 66 4.8 WSW 13 17 7 9 1008.8 1008.6 0.2
11/12:00pm 32.0 36.8 24.1 63 5.5 SW 6 11 3 6 1009.1 1008.9 0.2
11/11:30am 31.4 35.3 23.0 61 5.8 SW 7 15 4 8 1009.5 1009.3 0.2
11/11:00am 31.1 35.1 22.7 61 5.8 WSW 6 11 3 6 1009.7 1009.5 0.0
11/10:30am 30.5 34.7 23.4 66 4.9 SSW 7 11 4 6 1009.9 1009.7 0.0
11/10:00am 29.7 34.1 23.4 69 4.3 SSE 6 11 3 6 1010.0 1009.8 0.0
11/09:30am 29.0 34.0 23.9 74 3.5 SE 4 7 2 4 1010.1 1009.9 0.0
11/09:00am 27.1 31.8 24.0 83 2.1 E 6 7 3 4 1010.2 1010.0 11.0
11/08:30am 26.6 32.0 23.9 85 1.9 NE 2 7 1 4 1010.0 1009.8 11.0
11/08:00am 26.5 31.1 23.8 85 1.9 NNW 6 9 3 5 1009.7 1009.5 11.0
11/07:30am 26.3 32.0 23.8 86 1.7 CALM 0 2 0 1 1009.2 1009.0 11.0
11/07:00am 26.0 31.6 23.5 86 1.7 CALM 0 4 0 2 1008.7 1008.5 11.0
11/06:30am 25.1 30.3 23.5 91 1.1 SSW 2 7 1 4 1008.5 1008.3 11.0
11/06:00am 24.8 30.2 23.2 91 1.1 CALM 0 6 0 3 1008.0 1007.8 11.0
11/05:30am 23.9 27.6 22.3 91 1.1 SW 6 7 3 4 1007.8 1007.6 11.0
11/05:00am 23.6 27.2 22.0 91 1.1 SW 6 9 3 5 1007.5 1007.3 11.0
11/04:30am 23.5 27.0 22.1 92 0.9 SSW 7 11 4 6 1007.2 1007.0 11.0
11/04:00am 23.3 26.3 21.9 92 0.9 WSW 9 15 5 8 1006.8 1006.6 11.0
11/03:30am 23.7 26.8 22.1 91 1.1 SSE 9 15 5 8 1007.0 1006.8 10.8
11/03:00am 22.5 22.2 21.1 92 0.9 S 24 44 13 24 1007.3 1007.1 10.4
11/02:53am 22.4 19.9 20.9 91 1.0 SSE 35 48 19 26 1007.7 1007.5 9.8
11/02:47am 22.9 18.5 20.2 85 1.7 SE 43 65 23 35 1008.1 1007.9 5.6
11/02:39am 26.4 25.5 20.7 71 3.8 E 26 61 14 33 1008.0 1007.8 1.4
11/02:30am 27.9 31.6 24.5 82 2.4 E 13 20 7 11 1007.1 1006.9 1.4
11/02:00am 27.9 33.8 24.7 83 2.2 ESE 2 9 1 5 1007.0 1006.8 0.0
11/01:30am 27.1 33.2 24.4 85 1.9 CALM 0 0 0 0 1007.0 1006.8 0.0
11/01:00am 27.8 34.1 24.8 84 2.1 CALM 0 0 0 0 1007.3 1007.1 0.0
11/12:30am 27.6 33.6 24.2 82 2.4 CALM 0 0 0 0 1007.5 1007.3 0.0
11/12:00am 28.2 33.0 24.2 79 2.8 S 6 9 3 5 1007.6 1007.4 0.0
 
Date/Time
CST
Temp
°C
App
Temp
°C
Dew
Point
°C
Rel
Hum
%
Delta-T
°C
Wind Press
QNH
hPa
Press
MSL
hPa
Rain since
9am
mm
Dir  Spd
km/h
Gust
km/h
Spd
kts
Gust
kts
10/11:30pm 28.0 32.8 24.2 80 2.6 SSW 6 7 3 4 1007.9 1007.7 0.0
10/11:00pm 27.8 33.4 24.2 81 2.5 S 2 7 1 4 1007.8 1007.6 0.0
10/10:30pm 28.3 34.3 24.3 79 2.8 CALM 0 0 0 0 1007.8 1007.6 0.0
10/10:00pm 28.2 34.0 24.0 78 2.9 CALM 0 0 0 0 1007.7 1007.5 0.0
10/09:30pm 28.3 34.2 24.1 78 2.9 CALM 0 0 0 0 1007.7 1007.5 0.0
10/09:00pm 28.8 33.5 23.9 75 3.4 W 6 7 3 4 1007.4 1007.2 0.0
10/08:30pm 28.8 33.7 24.4 77 3.1 WSW 6 7 3 4 1007.2 1007.0 0.0
10/08:00pm 29.6 34.2 23.8 71 4.0 WSW 6 7 3 4 1007.0 1006.8 0.0
10/07:30pm 30.4 36.1 23.8 68 4.6 CALM 0 6 0 3 1006.7 1006.5 0.0
10/07:00pm 31.5 35.3 22.8 60 6.0 WSW 7 11 4 6 1006.6 1006.4 0.0
10/06:30pm 32.8 36.9 22.9 56 6.8 WSW 6 9 3 5 1006.2 1005.9 0.0
10/06:00pm 32.7 35.8 22.2 54 7.2 SSW 9 13 5 7 1005.8 1005.5 0.0
10/05:30pm 33.1 36.4 22.5 53 7.3 W 9 15 5 8 1005.7 1005.4 0.0
10/05:00pm 33.0 36.4 23.3 56 6.7 W 11 15 6 8 1006.0 1005.7 0.0
10/04:30pm 33.0 37.3 24.2 60 6.2 W 9 15 5 8 1006.0 1005.7 0.0
10/04:00pm 32.1 35.8 23.9 62 5.7 WSW 11 19 6 10 1006.3 1006.0 0.0
10/03:30pm 33.3 36.7 23.3 55 6.9 WNW 11 19 6 10 1006.5 1006.3 0.0
10/03:00pm 33.5 36.5 21.3 48 8.3 ESE 7 11 4 6 1007.0 1006.8 0.0
10/02:30pm 32.8 35.8 22.6 55 7.0 E 11 13 6 7 1007.5 1007.3 0.0
10/02:00pm 33.4 36.4 21.9 51 7.8 E 9 13 5 7 1008.0 1007.8 0.0
10/01:30pm 33.7 37.7 23.7 56 7.0 ENE 9 13 5 7 1008.7 1008.5 0.0
10/01:00pm 32.3 36.2 21.8 54 7.1 E 4 11 2 6 1009.3 1009.1 0.0
10/12:30pm 31.3 35.8 22.3 58 6.1 E 2 7 1 4 1009.9 1009.7 0.0
10/12:00pm 30.5 34.3 22.4 62 5.5 ENE 6 9 3 5 1010.7 1010.5 0.0
10/11:30am 29.5 33.6 22.2 65 4.9 ENE 4 11 2 6 1011.0 1010.8 0.0
10/11:00am 29.3 33.4 22.3 66 4.7 ENE 4 11 2 6 1011.3 1011.1 0.0
10/10:30am 28.3 32.0 22.5 71 3.9 NE 7 11 4 6 1011.6 1011.4 0.0
10/10:00am 28.4 32.3 22.9 72 3.8 N 7 13 4 7 1011.3 1011.1 0.0
10/09:30am 28.1 31.7 23.0 74 3.5 ESE 9 13 5 7 1010.9 1010.7 0.0
10/09:00am 26.8 30.5 23.3 81 2.4 S 9 15 5 8 1010.5 1010.3 6.2
10/08:30am 26.4 29.1 23.5 84 2.0 SSW 15 24 8 13 1010.4 1010.2 6.2
10/08:00am 27.7 33.6 25.9 90 1.3 S 6 11 3 6 1010.1 1009.9 6.2
10/07:30am 27.3 34.1 25.5 90 1.3 CALM 0 0 0 0 1009.5 1009.3 6.2
10/07:00am 27.1 34.0 25.7 92 1.0 CALM 0 0 0 0 1009.1 1008.9 6.2
10/06:30am 26.1 32.5 24.9 93 0.8 CALM 0 0 0 0 1008.7 1008.5 6.2
10/06:00am 26.4 33.0 25.2 93 0.8 CALM 0 0 0 0 1008.5 1008.3 6.2
10/05:30am 25.9 32.0 24.5 92 1.0 CALM 0 0 0 0 1008.1 1007.9 6.2
10/05:00am 25.8 31.8 24.2 91 1.1 CALM 0 0 0 0 1007.6 1007.4 6.2
10/04:30am 26.6 32.9 24.8 90 1.3 CALM 0 0 0 0 1007.1 1006.9 6.2
10/04:00am 26.0 31.5 24.0 89 1.4 SE 2 6 1 3 1007.1 1006.9 6.2
10/03:30am 26.5 32.2 23.8 85 1.9 CALM 0 0 0 0 1007.1 1006.9 6.2
10/03:00am 26.4 32.1 23.7 85 1.9 CALM 0 0 0 0 1006.8 1006.6 6.2
10/02:30am 26.2 32.1 24.1 88 1.4 CALM 0 0 0 0 1006.6 1006.4 6.2
10/02:00am 26.3 32.6 24.7 91 1.1 CALM 0 0 0 0 1006.9 1006.7 6.2
10/01:30am 26.0 32.1 24.4 91 1.1 CALM 0 0 0 0 1007.1 1006.9 6.2
10/01:00am 25.9 32.0 24.5 92 1.0 CALM 0 0 0 0 1007.5 1007.3 6.2
10/12:30am 25.7 31.7 24.3 92 1.0 CALM 0 0 0 0 1008.0 1007.8 6.2
10/12:00am 25.5 30.6 23.4 88 1.4 SSW 2 6 1 3 1008.3 1008.1 6.2
 
Date/Time
CST
Temp
°C
App
Temp
°C
Dew
Point
°C
Rel
Hum
%
Delta-T
°C
Wind Press
QNH
hPa
Press
MSL
hPa
Rain since
9am
mm
Dir  Spd
km/h
Gust
km/h
Spd
kts
Gust
kts
09/11:30pm 26.0 31.8 24.0 89 1.4 CALM 0 0 0 0 1008.3 1008.1 6.2
09/11:00pm 26.6 31.9 23.1 81 2.4 CALM 0 0 0 0 1008.5 1008.3 6.2
09/10:30pm 26.5 31.0 23.0 81 2.4 ENE 4 7 2 4 1008.3 1008.1 6.2
09/10:00pm 26.0 30.2 23.1 84 2.0 ESE 6 7 3 4 1007.9 1007.7 6.2
09/09:30pm 25.9 31.3 23.2 85 1.8 CALM 0 0 0 0 1007.3 1007.1 6.2
09/09:00pm 25.3 30.8 23.4 89 1.3 CALM 0 0 0 0 1006.9 1006.7 6.2
09/08:30pm 25.1 29.8 22.6 86 1.7 SSW 2 7 1 4 1006.8 1006.6 6.2
09/08:00pm 25.5 30.2 22.0 81 2.3 CALM 0 0 0 0 1006.3 1006.0 6.2
09/07:30pm 25.4 28.1 21.3 78 2.7 W 9 17 5 9 1005.8 1005.5 6.2
09/07:00pm 26.0 23.7 19.4 67 4.3 SE 30 63 16 34 1007.3 1007.1 0.8
09/06:59pm 26.4 24.7 19.8 67 4.3 SE 28 63 15 34 1007.3 1007.1 0.6
09/06:55pm 31.7 33.7 21.5 54 6.9 SSE 13 48 7 26 1007.0 1006.8 0.0
09/06:30pm 32.6 37.0 23.5 58 6.3 W 6 9 3 5 1005.5 1005.2 0.0
09/06:00pm 32.3 35.8 23.5 59 6.1 WNW 11 15 6 8 1004.8 1004.5 0.0
09/05:30pm 33.1 36.0 22.5 53 7.3 W 11 20 6 11 1004.5 1004.2 0.0
09/05:00pm 32.6 35.1 22.4 55 7.0 WNW 13 17 7 9 1004.6 1004.3 0.0
09/04:30pm 33.0 35.5 22.4 53 7.3 WNW 13 20 7 11 1004.6 1004.3 0.0
09/04:00pm 33.8 35.4 22.9 53 7.5 NW 19 26 10 14 1004.8 1004.5 0.0
09/03:30pm 34.1 37.4 22.5 50 8.0 WNW 9 15 5 8 1005.3 1005.0 0.0
09/03:00pm 33.7 37.5 24.0 57 6.8 WNW 11 17 6 9 1005.5 1005.2 0.0
09/02:30pm 34.1 36.0 20.5 45 9.1 WNW 11 17 6 9 1005.9 1005.6 0.0
09/02:00pm 33.7 35.8 20.1 44 9.1 W 9 15 5 8 1006.0 1005.7 0.0
09/01:30pm 33.6 35.6 20.0 44 9.1 WNW 9 13 5 7 1006.6 1006.4 0.0
09/01:00pm 33.3 36.1 21.5 50 8.0 NW 9 15 5 8 1007.0 1006.8 0.0
09/12:30pm 31.5 33.7 21.1 54 7.0 W 11 26 6 14 1007.6 1007.4 0.0
09/12:00pm 31.2 34.1 21.7 57 6.4 W 9 26 5 14 1008.1 1007.9 0.0
09/11:30am 32.1 35.8 23.9 62 5.7 SW 11 17 6 9 1008.2 1008.0 0.0
09/11:00am 33.3 38.0 23.9 58 6.6 SW 6 13 3 7 1008.5 1008.3 0.0
09/10:30am 33.4 36.3 22.5 52 7.5 NW 11 17 6 9 1008.4 1008.2 0.0
09/10:00am 31.9 34.9 24.0 63 5.5 NNW 15 20 8 11 1008.5 1008.3 0.0
09/09:30am 31.8 35.8 23.1 60 6.0 WNW 7 11 4 6 1008.5 1008.3 0.0
09/09:00am 31.9 35.7 24.0 63 5.5 WNW 11 15 6 8 1008.5 1008.3 0.0
09/08:30am 31.8 37.2 25.2 68 4.7 NE 6 7 3 4 1008.6 1008.4 0.0
09/08:00am 30.4 36.5 25.7 76 3.3 ENE 4 7 2 4 1007.9 1007.7 0.0
09/07:30am 29.8 37.3 26.6 83 2.3 CALM 0 0 0 0 1007.8 1007.6 0.0
09/07:00am 28.7 36.0 26.3 87 1.7 CALM 0 4 0 2 1007.6 1007.4 0.0
09/06:30am 28.4 35.8 26.4 89 1.4 CALM 0 0 0 0 1006.9 1006.7 0.0
09/06:00am 28.4 35.8 26.4 89 1.4 CALM 0 0 0 0 1006.5 1006.3 0.0
09/05:30am 28.3 35.7 26.5 90 1.3 CALM 0 0 0 0 1006.1 1005.8 0.0
09/05:00am 28.3 35.6 26.3 89 1.4 CALM 0 2 0 1 1005.8 1005.5 0.0
09/04:30am 28.4 35.9 26.6 90 1.3 CALM 0 0 0 0 1005.5 1005.2 0.0
09/04:00am 28.3 35.6 26.3 89 1.4 CALM 0 0 0 0 1005.3 1005.0 0.0
09/03:30am 28.2 34.9 26.0 88 1.6 SW 2 6 1 3 1005.3 1005.0 0.0
09/03:00am 28.9 36.2 26.3 86 1.9 CALM 0 0 0 0 1005.2 1004.9 0.0
09/02:30am 29.0 35.5 26.2 85 2.0 W 4 7 2 4 1005.1 1004.8 0.0
09/02:00am 29.5 35.5 26.3 83 2.3 NW 7 9 4 5 1005.1 1004.8 0.0
09/01:30am 29.5 35.7 26.3 83 2.3 NNW 6 9 3 5 1005.4 1005.1 0.0
09/01:00am 29.3 35.2 25.9 82 2.4 WNW 6 9 3 5 1005.6 1005.3 0.0
09/12:30am 29.5 36.3 26.1 82 2.4 NW 2 7 1 4 1005.7 1005.4 0.0
09/12:00am 29.4 36.5 26.0 82 2.4 CALM 0 0 0 0 1005.9 1005.6 0.0
 
Date/Time
CST
Temp
°C
App
Temp
°C
Dew
Point
°C
Rel
Hum
%
Delta-T
°C
Wind Press
QNH
hPa
Press
MSL
hPa
Rain since
9am
mm
Dir  Spd
km/h
Gust
km/h
Spd
kts
Gust
kts
08/11:30pm 29.8 36.8 25.8 79 2.8 CALM 0 0 0 0 1006.1 1005.8 0.0
08/11:00pm 30.1 35.7 25.8 78 3.1 WNW 7 11 4 6 1005.8 1005.5 0.0
08/10:30pm 30.4 35.7 25.9 77 3.2 NW 9 11 5 6 1005.8 1005.5 0.0
08/10:00pm 30.2 36.0 25.7 77 3.2 WNW 6 9 3 5 1005.7 1005.4 0.0
08/09:30pm 30.6 36.2 25.7 75 3.5 WNW 7 11 4 6 1005.5 1005.2 0.0
08/09:00pm 30.9 36.1 25.7 74 3.7 NW 9 13 5 7 1005.3 1005.0 0.0
08/08:30pm 31.0 35.6 25.4 72 4.0 NNW 11 15 6 8 1005.1 1004.8 0.0
08/08:00pm 31.0 36.4 25.4 72 4.0 WNW 7 13 4 7 1005.1 1004.8 0.0
08/07:30pm 31.4 36.1 25.0 69 4.5 NW 9 15 5 8 1005.0 1004.7 0.0
08/07:00pm 31.7 36.6 24.6 66 5.0 WNW 7 11 4 6 1004.5 1004.2 0.0
08/06:30pm 32.5 35.9 24.0 61 5.9 NW 13 19 7 10 1004.0 1003.7 0.0
08/06:00pm 33.7 37.3 24.3 58 6.6 NW 13 20 7 11 1004.0 1003.7 0.0

Other Formats:

Comma delimited format used in spreadsheet applications
http://www.bom.gov.au/fwo/IDD60801/IDD60801.95111.axf

JavaScript Object Notation format (JSON) in row-major order
http://www.bom.gov.au/fwo/IDD60801/IDD60801.95111.json